sensor_id;sensor_type;location;lat;lon;timestamp;temperature;humidity
38480;DHT22;62333;51.980;5.934;2024-01-30T00:01:37;11.70;74.10
38480;DHT22;62333;51.980;5.934;2024-01-30T00:04:03;11.60;74.00
38480;DHT22;62333;51.980;5.934;2024-01-30T00:06:29;11.60;74.00
38480;DHT22;62333;51.980;5.934;2024-01-30T00:08:54;11.60;74.00
38480;DHT22;62333;51.980;5.934;2024-01-30T00:11:20;11.50;74.00
38480;DHT22;62333;51.980;5.934;2024-01-30T00:13:46;11.60;74.20
38480;DHT22;62333;51.980;5.934;2024-01-30T00:16:22;11.50;74.20
38480;DHT22;62333;51.980;5.934;2024-01-30T00:18:52;11.60;74.10
38480;DHT22;62333;51.980;5.934;2024-01-30T00:21:18;11.50;74.20
38480;DHT22;62333;51.980;5.934;2024-01-30T00:23:44;11.50;74.30
38480;DHT22;62333;51.980;5.934;2024-01-30T00:26:10;11.50;74.30
38480;DHT22;62333;51.980;5.934;2024-01-30T00:28:37;11.50;74.30
38480;DHT22;62333;51.980;5.934;2024-01-30T00:31:03;11.60;74.40
38480;DHT22;62333;51.980;5.934;2024-01-30T00:33:28;11.60;74.40
38480;DHT22;62333;51.980;5.934;2024-01-30T00:35:54;11.60;74.40
38480;DHT22;62333;51.980;5.934;2024-01-30T00:38:20;11.60;74.40
38480;DHT22;62333;51.980;5.934;2024-01-30T00:40:45;11.70;74.60
38480;DHT22;62333;51.980;5.934;2024-01-30T00:43:11;11.70;74.60
38480;DHT22;62333;51.980;5.934;2024-01-30T00:45:37;11.70;74.60
38480;DHT22;62333;51.980;5.934;2024-01-30T00:48:03;11.80;74.70
38480;DHT22;62333;51.980;5.934;2024-01-30T00:50:29;11.80;74.70
38480;DHT22;62333;51.980;5.934;2024-01-30T00:52:55;11.80;74.80
38480;DHT22;62333;51.980;5.934;2024-01-30T00:55:20;11.80;74.80
38480;DHT22;62333;51.980;5.934;2024-01-30T00:57:46;11.80;75.40
38480;DHT22;62333;51.980;5.934;2024-01-30T01:00:13;11.80;74.90
38480;DHT22;62333;51.980;5.934;2024-01-30T01:02:41;11.90;74.80
38480;DHT22;62333;51.980;5.934;2024-01-30T01:05:07;11.90;74.80
38480;DHT22;62333;51.980;5.934;2024-01-30T01:07:32;11.90;74.80
38480;DHT22;62333;51.980;5.934;2024-01-30T01:09:58;11.90;75.50
38480;DHT22;62333;51.980;5.934;2024-01-30T01:12:23;11.90;75.00
38480;DHT22;62333;51.980;5.934;2024-01-30T01:14:49;11.90;74.90
38480;DHT22;62333;51.980;5.934;2024-01-30T01:17:15;11.90;74.90
38480;DHT22;62333;51.980;5.934;2024-01-30T01:19:40;11.90;74.80
38480;DHT22;62333;51.980;5.934;2024-01-30T01:22:06;11.90;74.80
38480;DHT22;62333;51.980;5.934;2024-01-30T01:24:32;11.80;74.80
38480;DHT22;62333;51.980;5.934;2024-01-30T01:27:00;11.80;74.70
38480;DHT22;62333;51.980;5.934;2024-01-30T01:29:26;11.70;74.60
38480;DHT22;62333;51.980;5.934;2024-01-30T01:31:57;11.70;74.70
38480;DHT22;62333;51.980;5.934;2024-01-30T01:34:24;11.70;74.60
38480;DHT22;62333;51.980;5.934;2024-01-30T01:36:50;11.60;75.30
38480;DHT22;62333;51.980;5.934;2024-01-30T01:39:16;11.60;74.60
38480;DHT22;62333;51.980;5.934;2024-01-30T01:41:42;11.50;74.60
38480;DHT22;62333;51.980;5.934;2024-01-30T01:44:08;11.50;74.70
38480;DHT22;62333;51.980;5.934;2024-01-30T01:46:34;11.50;74.80
38480;DHT22;62333;51.980;5.934;2024-01-30T01:49:02;11.40;74.80
38480;DHT22;62333;51.980;5.934;2024-01-30T01:51:29;11.30;74.80
38480;DHT22;62333;51.980;5.934;2024-01-30T01:53:59;11.30;74.90
38480;DHT22;62333;51.980;5.934;2024-01-30T01:56:27;11.30;75.00
38480;DHT22;62333;51.980;5.934;2024-01-30T01:58:55;11.30;75.00
38480;DHT22;62333;51.980;5.934;2024-01-30T02:01:21;11.30;75.00
38480;DHT22;62333;51.980;5.934;2024-01-30T02:03:47;11.20;75.00
38480;DHT22;62333;51.980;5.934;2024-01-30T02:06:16;11.20;75.00
38480;DHT22;62333;51.980;5.934;2024-01-30T02:08:42;11.20;75.00
38480;DHT22;62333;51.980;5.934;2024-01-30T02:11:08;11.20;75.10
38480;DHT22;62333;51.980;5.934;2024-01-30T02:13:35;11.10;75.00
38480;DHT22;62333;51.980;5.934;2024-01-30T02:16:01;11.10;75.10
38480;DHT22;62333;51.980;5.934;2024-01-30T02:18:27;11.10;75.20
38480;DHT22;62333;51.980;5.934;2024-01-30T02:20:54;11.10;75.20
38480;DHT22;62333;51.980;5.934;2024-01-30T02:23:23;11.20;75.40
38480;DHT22;62333;51.980;5.934;2024-01-30T02:25:50;11.10;75.30
38480;DHT22;62333;51.980;5.934;2024-01-30T02:28:18;11.10;75.30
38480;DHT22;62333;51.980;5.934;2024-01-30T02:30:45;11.10;75.40
38480;DHT22;62333;51.980;5.934;2024-01-30T02:33:11;11.10;75.40
38480;DHT22;62333;51.980;5.934;2024-01-30T02:35:37;11.10;75.50
38480;DHT22;62333;51.980;5.934;2024-01-30T02:38:03;11.10;75.50
38480;DHT22;62333;51.980;5.934;2024-01-30T02:40:29;11.10;75.60
38480;DHT22;62333;51.980;5.934;2024-01-30T02:42:55;11.10;75.60
38480;DHT22;62333;51.980;5.934;2024-01-30T02:45:21;11.10;75.60
38480;DHT22;62333;51.980;5.934;2024-01-30T02:47:47;11.20;75.80
38480;DHT22;62333;51.980;5.934;2024-01-30T02:50:13;11.20;75.80
38480;DHT22;62333;51.980;5.934;2024-01-30T02:52:40;11.20;75.80
38480;DHT22;62333;51.980;5.934;2024-01-30T02:55:06;11.30;75.90
38480;DHT22;62333;51.980;5.934;2024-01-30T02:57:32;11.30;75.80
38480;DHT22;62333;51.980;5.934;2024-01-30T02:59:57;11.30;75.80
38480;DHT22;62333;51.980;5.934;2024-01-30T03:02:23;11.30;75.70
38480;DHT22;62333;51.980;5.934;2024-01-30T03:04:49;11.30;75.70
38480;DHT22;62333;51.980;5.934;2024-01-30T03:07:14;11.30;75.80
38480;DHT22;62333;51.980;5.934;2024-01-30T03:09:41;11.40;75.90
38480;DHT22;62333;51.980;5.934;2024-01-30T03:12:07;11.40;75.90
38480;DHT22;62333;51.980;5.934;2024-01-30T03:14:33;11.40;75.80
38480;DHT22;62333;51.980;5.934;2024-01-30T03:16:59;11.40;75.80
38480;DHT22;62333;51.980;5.934;2024-01-30T03:19:24;11.50;75.90
38480;DHT22;62333;51.980;5.934;2024-01-30T03:21:50;11.50;75.90
38480;DHT22;62333;51.980;5.934;2024-01-30T03:24:16;11.50;75.90
38480;DHT22;62333;51.980;5.934;2024-01-30T03:26:43;11.50;75.80
38480;DHT22;62333;51.980;5.934;2024-01-30T03:29:08;11.50;75.80
38480;DHT22;62333;51.980;5.934;2024-01-30T03:31:34;11.50;75.90
38480;DHT22;62333;51.980;5.934;2024-01-30T03:34:01;11.50;75.80
38480;DHT22;62333;51.980;5.934;2024-01-30T03:36:27;11.50;75.80
38480;DHT22;62333;51.980;5.934;2024-01-30T03:38:52;11.50;75.80
38480;DHT22;62333;51.980;5.934;2024-01-30T03:41:18;11.50;75.80
38480;DHT22;62333;51.980;5.934;2024-01-30T03:43:44;11.50;75.70
38480;DHT22;62333;51.980;5.934;2024-01-30T03:46:11;11.40;75.70
38480;DHT22;62333;51.980;5.934;2024-01-30T03:48:37;11.40;75.80
38480;DHT22;62333;51.980;5.934;2024-01-30T03:51:03;11.30;75.80
38480;DHT22;62333;51.980;5.934;2024-01-30T03:53:29;11.30;76.40
38480;DHT22;62333;51.980;5.934;2024-01-30T03:55:55;11.20;75.80
38480;DHT22;62333;51.980;5.934;2024-01-30T03:58:20;11.20;75.90
38480;DHT22;62333;51.980;5.934;2024-01-30T04:00:46;11.20;76.00
38480;DHT22;62333;51.980;5.934;2024-01-30T04:03:12;11.20;76.10
38480;DHT22;62333;51.980;5.934;2024-01-30T04:05:37;11.30;76.10
38480;DHT22;62333;51.980;5.934;2024-01-30T04:08:03;11.30;76.10
38480;DHT22;62333;51.980;5.934;2024-01-30T04:10:29;11.30;76.10
38480;DHT22;62333;51.980;5.934;2024-01-30T04:12:54;11.40;76.10
38480;DHT22;62333;51.980;5.934;2024-01-30T04:15:21;11.40;76.20
38480;DHT22;62333;51.980;5.934;2024-01-30T04:17:47;11.40;76.20
38480;DHT22;62333;51.980;5.934;2024-01-30T04:20:15;11.40;76.20
38480;DHT22;62333;51.980;5.934;2024-01-30T04:22:45;11.40;76.20
38480;DHT22;62333;51.980;5.934;2024-01-30T04:25:12;11.50;76.20
38480;DHT22;62333;51.980;5.934;2024-01-30T04:27:37;11.50;76.20
38480;DHT22;62333;51.980;5.934;2024-01-30T04:30:04;11.50;76.20
38480;DHT22;62333;51.980;5.934;2024-01-30T04:32:29;11.50;76.20
38480;DHT22;62333;51.980;5.934;2024-01-30T04:34:55;11.50;76.30
38480;DHT22;62333;51.980;5.934;2024-01-30T04:37:21;11.50;76.30
38480;DHT22;62333;51.980;5.934;2024-01-30T04:39:46;11.50;76.20
38480;DHT22;62333;51.980;5.934;2024-01-30T04:42:13;11.60;76.30
38480;DHT22;62333;51.980;5.934;2024-01-30T04:44:38;11.60;76.30
38480;DHT22;62333;51.980;5.934;2024-01-30T04:47:04;11.60;76.30
38480;DHT22;62333;51.980;5.934;2024-01-30T04:49:31;11.60;76.30
38480;DHT22;62333;51.980;5.934;2024-01-30T04:51:58;11.60;76.30
38480;DHT22;62333;51.980;5.934;2024-01-30T04:54:24;11.60;76.30
38480;DHT22;62333;51.980;5.934;2024-01-30T04:56:49;11.60;76.40
38480;DHT22;62333;51.980;5.934;2024-01-30T04:59:15;11.60;76.40
38480;DHT22;62333;51.980;5.934;2024-01-30T05:01:41;11.60;76.40
38480;DHT22;62333;51.980;5.934;2024-01-30T05:04:10;11.60;76.40
38480;DHT22;62333;51.980;5.934;2024-01-30T05:06:36;11.60;76.30
38480;DHT22;62333;51.980;5.934;2024-01-30T05:09:02;11.60;76.40
38480;DHT22;62333;51.980;5.934;2024-01-30T05:11:30;11.60;76.30
38480;DHT22;62333;51.980;5.934;2024-01-30T05:13:56;11.60;76.30
38480;DHT22;62333;51.980;5.934;2024-01-30T05:16:22;11.60;76.30
38480;DHT22;62333;51.980;5.934;2024-01-30T05:18:47;11.50;76.30
38480;DHT22;62333;51.980;5.934;2024-01-30T05:21:13;11.50;76.40
38480;DHT22;62333;51.980;5.934;2024-01-30T05:23:39;11.50;76.40
38480;DHT22;62333;51.980;5.934;2024-01-30T05:26:05;11.50;76.30
38480;DHT22;62333;51.980;5.934;2024-01-30T05:28:31;11.40;76.30
38480;DHT22;62333;51.980;5.934;2024-01-30T05:30:57;11.50;76.40
38480;DHT22;62333;51.980;5.934;2024-01-30T05:33:23;11.40;76.40
38480;DHT22;62333;51.980;5.934;2024-01-30T05:35:48;11.30;76.40
38480;DHT22;62333;51.980;5.934;2024-01-30T05:38:16;11.30;76.40
38480;DHT22;62333;51.980;5.934;2024-01-30T05:40:41;11.30;76.40
38480;DHT22;62333;51.980;5.934;2024-01-30T05:43:07;11.30;76.50
38480;DHT22;62333;51.980;5.934;2024-01-30T05:45:33;11.30;76.50
38480;DHT22;62333;51.980;5.934;2024-01-30T05:48:00;11.30;76.60
38480;DHT22;62333;51.980;5.934;2024-01-30T05:50:26;11.30;76.60
38480;DHT22;62333;51.980;5.934;2024-01-30T05:52:52;11.30;76.60
38480;DHT22;62333;51.980;5.934;2024-01-30T05:55:18;11.30;77.30
38480;DHT22;62333;51.980;5.934;2024-01-30T05:57:43;11.30;76.70
38480;DHT22;62333;51.980;5.934;2024-01-30T06:00:09;11.30;76.80
38480;DHT22;62333;51.980;5.934;2024-01-30T06:02:35;11.30;76.80
38480;DHT22;62333;51.980;5.934;2024-01-30T06:05:01;11.30;76.80
38480;DHT22;62333;51.980;5.934;2024-01-30T06:07:27;11.30;76.90
38480;DHT22;62333;51.980;5.934;2024-01-30T06:09:52;11.40;77.00
38480;DHT22;62333;51.980;5.934;2024-01-30T06:12:18;11.40;76.90
38480;DHT22;62333;51.980;5.934;2024-01-30T06:14:44;11.40;76.80
38480;DHT22;62333;51.980;5.934;2024-01-30T06:17:09;11.40;77.50
38480;DHT22;62333;51.980;5.934;2024-01-30T06:19:37;11.40;76.90
38480;DHT22;62333;51.980;5.934;2024-01-30T06:22:04;11.30;76.90
38480;DHT22;62333;51.980;5.934;2024-01-30T06:24:30;11.30;76.90
38480;DHT22;62333;51.980;5.934;2024-01-30T06:26:55;11.30;76.90
38480;DHT22;62333;51.980;5.934;2024-01-30T06:29:21;11.30;77.00
38480;DHT22;62333;51.980;5.934;2024-01-30T06:31:47;11.30;77.00
38480;DHT22;62333;51.980;5.934;2024-01-30T06:34:13;11.30;77.10
38480;DHT22;62333;51.980;5.934;2024-01-30T06:36:39;11.30;77.10
38480;DHT22;62333;51.980;5.934;2024-01-30T06:39:04;11.30;77.00
38480;DHT22;62333;51.980;5.934;2024-01-30T06:41:31;11.30;77.10
38480;DHT22;62333;51.980;5.934;2024-01-30T06:43:56;11.30;77.10
38480;DHT22;62333;51.980;5.934;2024-01-30T06:46:22;11.40;77.20
38480;DHT22;62333;51.980;5.934;2024-01-30T06:48:48;11.40;77.20
38480;DHT22;62333;51.980;5.934;2024-01-30T06:51:13;11.50;77.20
38480;DHT22;62333;51.980;5.934;2024-01-30T06:53:39;11.50;77.20
38480;DHT22;62333;51.980;5.934;2024-01-30T06:56:05;11.50;77.20
38480;DHT22;62333;51.980;5.934;2024-01-30T06:58:31;11.50;77.20
38480;DHT22;62333;51.980;5.934;2024-01-30T07:00:58;11.50;77.20
38480;DHT22;62333;51.980;5.934;2024-01-30T07:03:24;11.50;77.20
38480;DHT22;62333;51.980;5.934;2024-01-30T07:05:49;11.60;77.30
38480;DHT22;62333;51.980;5.934;2024-01-30T07:08:16;11.60;77.30
38480;DHT22;62333;51.980;5.934;2024-01-30T07:10:44;11.70;77.30
38480;DHT22;62333;51.980;5.934;2024-01-30T07:13:11;11.70;77.30
38480;DHT22;62333;51.980;5.934;2024-01-30T07:15:36;11.70;77.30
38480;DHT22;62333;51.980;5.934;2024-01-30T07:18:03;11.80;77.40
38480;DHT22;62333;51.980;5.934;2024-01-30T07:20:30;11.80;77.40
38480;DHT22;62333;51.980;5.934;2024-01-30T07:23:00;11.90;77.50
38480;DHT22;62333;51.980;5.934;2024-01-30T07:25:25;11.90;77.60
38480;DHT22;62333;51.980;5.934;2024-01-30T07:27:52;11.90;77.60
38480;DHT22;62333;51.980;5.934;2024-01-30T07:30:21;12.00;77.70
38480;DHT22;62333;51.980;5.934;2024-01-30T07:32:48;12.00;77.70
38480;DHT22;62333;51.980;5.934;2024-01-30T07:35:14;12.10;77.80
38480;DHT22;62333;51.980;5.934;2024-01-30T07:37:40;12.10;77.70
38480;DHT22;62333;51.980;5.934;2024-01-30T07:40:06;12.10;77.80
38480;DHT22;62333;51.980;5.934;2024-01-30T07:42:33;12.20;77.90
38480;DHT22;62333;51.980;5.934;2024-01-30T07:44:59;12.20;77.90
38480;DHT22;62333;51.980;5.934;2024-01-30T07:47:25;12.20;78.00
38480;DHT22;62333;51.980;5.934;2024-01-30T07:49:51;12.20;78.00
38480;DHT22;62333;51.980;5.934;2024-01-30T07:52:16;12.30;78.10
38480;DHT22;62333;51.980;5.934;2024-01-30T07:54:48;12.30;78.10
38480;DHT22;62333;51.980;5.934;2024-01-30T07:57:14;12.30;78.10
38480;DHT22;62333;51.980;5.934;2024-01-30T07:59:45;12.30;78.30
38480;DHT22;62333;51.980;5.934;2024-01-30T08:02:14;12.30;78.30
38480;DHT22;62333;51.980;5.934;2024-01-30T08:04:39;12.30;78.40
38480;DHT22;62333;51.980;5.934;2024-01-30T08:07:05;12.30;78.60
38480;DHT22;62333;51.980;5.934;2024-01-30T08:09:31;12.30;78.60
38480;DHT22;62333;51.980;5.934;2024-01-30T08:11:57;12.30;78.80
38480;DHT22;62333;51.980;5.934;2024-01-30T08:14:22;12.30;78.80
38480;DHT22;62333;51.980;5.934;2024-01-30T08:16:48;12.30;78.90
38480;DHT22;62333;51.980;5.934;2024-01-30T08:19:14;12.30;79.00
38480;DHT22;62333;51.980;5.934;2024-01-30T08:21:40;12.40;79.20
38480;DHT22;62333;51.980;5.934;2024-01-30T08:24:06;12.30;79.30
38480;DHT22;62333;51.980;5.934;2024-01-30T08:26:33;12.30;79.40
38480;DHT22;62333;51.980;5.934;2024-01-30T08:28:59;12.40;79.50
38480;DHT22;62333;51.980;5.934;2024-01-30T08:31:24;12.40;79.60
38480;DHT22;62333;51.980;5.934;2024-01-30T08:33:50;12.40;79.60
38480;DHT22;62333;51.980;5.934;2024-01-30T08:36:16;12.40;79.60
38480;DHT22;62333;51.980;5.934;2024-01-30T08:38:42;12.40;79.60
38480;DHT22;62333;51.980;5.934;2024-01-30T08:41:08;12.40;79.60
38480;DHT22;62333;51.980;5.934;2024-01-30T08:43:34;12.50;79.60
38480;DHT22;62333;51.980;5.934;2024-01-30T08:46:00;12.50;79.60
38480;DHT22;62333;51.980;5.934;2024-01-30T08:48:26;12.50;79.70
38480;DHT22;62333;51.980;5.934;2024-01-30T08:50:52;12.50;79.70
38480;DHT22;62333;51.980;5.934;2024-01-30T08:53:18;12.60;79.70
38480;DHT22;62333;51.980;5.934;2024-01-30T08:55:44;12.60;79.80
38480;DHT22;62333;51.980;5.934;2024-01-30T08:58:10;12.60;79.80
38480;DHT22;62333;51.980;5.934;2024-01-30T09:00:35;12.60;79.90
38480;DHT22;62333;51.980;5.934;2024-01-30T09:03:01;12.60;80.00
38480;DHT22;62333;51.980;5.934;2024-01-30T09:05:27;12.60;80.00
38480;DHT22;62333;51.980;5.934;2024-01-30T09:07:53;12.60;80.00
38480;DHT22;62333;51.980;5.934;2024-01-30T09:10:19;12.70;80.10
38480;DHT22;62333;51.980;5.934;2024-01-30T09:12:44;12.70;80.10
38480;DHT22;62333;51.980;5.934;2024-01-30T09:15:10;12.70;80.20
38480;DHT22;62333;51.980;5.934;2024-01-30T09:17:36;12.70;80.20
38480;DHT22;62333;51.980;5.934;2024-01-30T09:20:01;12.70;80.10
38480;DHT22;62333;51.980;5.934;2024-01-30T09:22:27;12.80;80.20
38480;DHT22;62333;51.980;5.934;2024-01-30T09:24:53;12.80;80.30
38480;DHT22;62333;51.980;5.934;2024-01-30T09:27:18;12.80;80.30
38480;DHT22;62333;51.980;5.934;2024-01-30T09:29:44;12.80;80.40
38480;DHT22;62333;51.980;5.934;2024-01-30T09:32:10;12.80;80.50
38480;DHT22;62333;51.980;5.934;2024-01-30T09:34:35;12.80;80.50
38480;DHT22;62333;51.980;5.934;2024-01-30T09:37:01;12.80;80.60
38480;DHT22;62333;51.980;5.934;2024-01-30T09:39:27;12.80;80.60
38480;DHT22;62333;51.980;5.934;2024-01-30T09:42:09;12.90;80.60
38480;DHT22;62333;51.980;5.934;2024-01-30T09:44:38;12.90;80.50
38480;DHT22;62333;51.980;5.934;2024-01-30T09:47:04;12.90;80.60
38480;DHT22;62333;51.980;5.934;2024-01-30T09:49:34;13.00;80.60
38480;DHT22;62333;51.980;5.934;2024-01-30T09:52:03;13.00;80.60
38480;DHT22;62333;51.980;5.934;2024-01-30T09:54:32;12.90;80.80
38480;DHT22;62333;51.980;5.934;2024-01-30T09:56:58;12.90;81.00
38480;DHT22;62333;51.980;5.934;2024-01-30T09:59:24;13.00;81.10
38480;DHT22;62333;51.980;5.934;2024-01-30T10:01:50;13.00;81.10
38480;DHT22;62333;51.980;5.934;2024-01-30T10:04:17;13.00;81.10
38480;DHT22;62333;51.980;5.934;2024-01-30T10:06:42;13.00;81.20
38480;DHT22;62333;51.980;5.934;2024-01-30T10:09:08;13.00;81.30
38480;DHT22;62333;51.980;5.934;2024-01-30T10:11:35;13.10;81.40
38480;DHT22;62333;51.980;5.934;2024-01-30T10:14:01;13.10;81.50
38480;DHT22;62333;51.980;5.934;2024-01-30T10:16:27;13.10;81.50
38480;DHT22;62333;51.980;5.934;2024-01-30T10:18:53;13.10;81.60
38480;DHT22;62333;51.980;5.934;2024-01-30T10:21:19;13.20;81.60
38480;DHT22;62333;51.980;5.934;2024-01-30T10:23:44;13.20;81.70
38480;DHT22;62333;51.980;5.934;2024-01-30T10:26:10;13.30;81.80
38480;DHT22;62333;51.980;5.934;2024-01-30T10:28:36;13.30;82.00
38480;DHT22;62333;51.980;5.934;2024-01-30T10:31:02;13.30;82.00
38480;DHT22;62333;51.980;5.934;2024-01-30T10:33:31;13.30;82.00
38480;DHT22;62333;51.980;5.934;2024-01-30T10:36:06;13.40;82.20
38480;DHT22;62333;51.980;5.934;2024-01-30T10:38:33;13.40;82.20
38480;DHT22;62333;51.980;5.934;2024-01-30T10:41:00;13.40;82.40
38480;DHT22;62333;51.980;5.934;2024-01-30T10:43:36;13.30;82.50
38480;DHT22;62333;51.980;5.934;2024-01-30T10:46:18;13.40;82.70
38480;DHT22;62333;51.980;5.934;2024-01-30T10:48:50;13.40;82.70
38480;DHT22;62333;51.980;5.934;2024-01-30T10:51:16;13.40;82.90
38480;DHT22;62333;51.980;5.934;2024-01-30T10:53:46;13.40;83.00
38480;DHT22;62333;51.980;5.934;2024-01-30T10:56:13;13.40;82.90
38480;DHT22;62333;51.980;5.934;2024-01-30T10:58:39;13.40;83.00
38480;DHT22;62333;51.980;5.934;2024-01-30T11:01:05;13.40;83.10
38480;DHT22;62333;51.980;5.934;2024-01-30T11:03:33;13.50;83.20
38480;DHT22;62333;51.980;5.934;2024-01-30T11:06:02;13.50;83.20
38480;DHT22;62333;51.980;5.934;2024-01-30T11:08:28;13.50;83.20
38480;DHT22;62333;51.980;5.934;2024-01-30T11:10:57;13.50;83.20
38480;DHT22;62333;51.980;5.934;2024-01-30T11:13:30;13.60;83.30
38480;DHT22;62333;51.980;5.934;2024-01-30T11:16:04;13.60;83.30
38480;DHT22;62333;51.980;5.934;2024-01-30T11:18:30;13.60;83.30
38480;DHT22;62333;51.980;5.934;2024-01-30T11:21:00;13.60;83.50
38480;DHT22;62333;51.980;5.934;2024-01-30T11:23:30;13.60;83.50
38480;DHT22;62333;51.980;5.934;2024-01-30T11:25:56;13.70;83.60
38480;DHT22;62333;51.980;5.934;2024-01-30T11:28:23;13.70;83.60
38480;DHT22;62333;51.980;5.934;2024-01-30T11:30:49;13.70;83.60
38480;DHT22;62333;51.980;5.934;2024-01-30T11:33:30;13.80;83.50
38480;DHT22;62333;51.980;5.934;2024-01-30T11:35:58;13.90;83.30
38480;DHT22;62333;51.980;5.934;2024-01-30T11:38:28;13.90;83.30
38480;DHT22;62333;51.980;5.934;2024-01-30T11:40:57;13.90;83.30
38480;DHT22;62333;51.980;5.934;2024-01-30T11:43:23;13.90;83.10
38480;DHT22;62333;51.980;5.934;2024-01-30T11:45:49;13.90;83.10
38480;DHT22;62333;51.980;5.934;2024-01-30T11:48:15;13.90;83.10
38480;DHT22;62333;51.980;5.934;2024-01-30T11:50:41;13.90;83.10
38480;DHT22;62333;51.980;5.934;2024-01-30T11:53:06;13.90;83.00
38480;DHT22;62333;51.980;5.934;2024-01-30T11:55:33;14.00;83.10
38480;DHT22;62333;51.980;5.934;2024-01-30T11:57:59;14.00;83.00
38480;DHT22;62333;51.980;5.934;2024-01-30T12:00:25;14.00;82.90
38480;DHT22;62333;51.980;5.934;2024-01-30T12:02:52;14.10;82.70
38480;DHT22;62333;51.980;5.934;2024-01-30T12:05:22;14.10;82.60
38480;DHT22;62333;51.980;5.934;2024-01-30T12:07:48;14.10;82.50
38480;DHT22;62333;51.980;5.934;2024-01-30T12:10:14;14.10;82.30
38480;DHT22;62333;51.980;5.934;2024-01-30T12:12:41;14.10;82.10
38480;DHT22;62333;51.980;5.934;2024-01-30T12:15:07;14.10;82.00
38480;DHT22;62333;51.980;5.934;2024-01-30T12:17:34;14.10;82.00
38480;DHT22;62333;51.980;5.934;2024-01-30T12:20:07;14.10;81.90
38480;DHT22;62333;51.980;5.934;2024-01-30T12:22:46;14.20;81.90
38480;DHT22;62333;51.980;5.934;2024-01-30T12:25:16;14.20;82.00
38480;DHT22;62333;51.980;5.934;2024-01-30T12:27:43;14.20;81.80
38480;DHT22;62333;51.980;5.934;2024-01-30T12:30:11;14.20;81.60
38480;DHT22;62333;51.980;5.934;2024-01-30T12:32:44;14.20;81.50
38480;DHT22;62333;51.980;5.934;2024-01-30T12:35:11;14.20;81.40
38480;DHT22;62333;51.980;5.934;2024-01-30T12:37:37;14.20;81.20
38480;DHT22;62333;51.980;5.934;2024-01-30T12:40:03;14.40;81.20
38480;DHT22;62333;51.980;5.934;2024-01-30T12:42:29;14.60;81.00
38480;DHT22;62333;51.980;5.934;2024-01-30T12:44:57;14.70;80.30
38480;DHT22;62333;51.980;5.934;2024-01-30T12:47:23;14.70;79.60
38480;DHT22;62333;51.980;5.934;2024-01-30T12:49:48;14.60;79.30
38480;DHT22;62333;51.980;5.934;2024-01-30T12:52:16;14.50;79.30
38480;DHT22;62333;51.980;5.934;2024-01-30T12:54:41;14.50;79.10
38480;DHT22;62333;51.980;5.934;2024-01-30T12:57:07;14.30;78.70
38480;DHT22;62333;51.980;5.934;2024-01-30T12:59:33;14.20;79.10
38480;DHT22;62333;51.980;5.934;2024-01-30T13:02:00;14.20;79.20
38480;DHT22;62333;51.980;5.934;2024-01-30T13:04:26;14.20;79.40
38480;DHT22;62333;51.980;5.934;2024-01-30T13:06:52;14.20;79.30
38480;DHT22;62333;51.980;5.934;2024-01-30T13:09:18;14.30;79.30
38480;DHT22;62333;51.980;5.934;2024-01-30T13:11:43;14.30;79.40
38480;DHT22;62333;51.980;5.934;2024-01-30T13:14:09;14.30;79.10
38480;DHT22;62333;51.980;5.934;2024-01-30T13:16:35;14.20;78.70
38480;DHT22;62333;51.980;5.934;2024-01-30T13:19:00;14.20;78.90
38480;DHT22;62333;51.980;5.934;2024-01-30T13:21:27;14.20;79.00
38480;DHT22;62333;51.980;5.934;2024-01-30T13:23:53;14.20;78.80
38480;DHT22;62333;51.980;5.934;2024-01-30T13:26:20;14.20;78.70
38480;DHT22;62333;51.980;5.934;2024-01-30T13:28:46;14.20;78.10
38480;DHT22;62333;51.980;5.934;2024-01-30T13:31:13;14.10;77.90
38480;DHT22;62333;51.980;5.934;2024-01-30T13:33:39;14.00;77.10
38480;DHT22;62333;51.980;5.934;2024-01-30T13:36:05;13.90;76.60
38480;DHT22;62333;51.980;5.934;2024-01-30T13:38:30;13.90;76.60
38480;DHT22;62333;51.980;5.934;2024-01-30T13:40:56;13.90;76.20
38480;DHT22;62333;51.980;5.934;2024-01-30T13:43:22;13.90;75.40
38480;DHT22;62333;51.980;5.934;2024-01-30T13:45:47;13.80;74.40
38480;DHT22;62333;51.980;5.934;2024-01-30T13:48:13;13.80;74.70
38480;DHT22;62333;51.980;5.934;2024-01-30T13:50:38;13.70;74.20
38480;DHT22;62333;51.980;5.934;2024-01-30T13:53:04;13.60;74.30
38480;DHT22;62333;51.980;5.934;2024-01-30T13:55:30;13.60;74.90
38480;DHT22;62333;51.980;5.934;2024-01-30T13:57:56;13.50;75.30
38480;DHT22;62333;51.980;5.934;2024-01-30T14:00:22;13.50;75.80
38480;DHT22;62333;51.980;5.934;2024-01-30T14:02:48;13.40;76.10
38480;DHT22;62333;51.980;5.934;2024-01-30T14:05:14;13.40;76.50
38480;DHT22;62333;51.980;5.934;2024-01-30T14:07:40;13.40;76.60
38480;DHT22;62333;51.980;5.934;2024-01-30T14:10:09;13.30;76.70
38480;DHT22;62333;51.980;5.934;2024-01-30T14:12:36;13.30;76.80
38480;DHT22;62333;51.980;5.934;2024-01-30T14:15:02;13.20;77.40
38480;DHT22;62333;51.980;5.934;2024-01-30T14:17:27;13.00;76.90
38480;DHT22;62333;51.980;5.934;2024-01-30T14:19:53;13.00;77.30
38480;DHT22;62333;51.980;5.934;2024-01-30T14:22:18;13.00;77.40
38480;DHT22;62333;51.980;5.934;2024-01-30T14:24:44;12.90;77.50
38480;DHT22;62333;51.980;5.934;2024-01-30T14:27:10;12.90;77.60
38480;DHT22;62333;51.980;5.934;2024-01-30T14:29:36;12.80;77.60
38480;DHT22;62333;51.980;5.934;2024-01-30T14:32:02;12.80;77.70
38480;DHT22;62333;51.980;5.934;2024-01-30T14:34:29;12.80;78.00
38480;DHT22;62333;51.980;5.934;2024-01-30T14:36:55;12.80;77.90
38480;DHT22;62333;51.980;5.934;2024-01-30T14:39:20;12.70;77.90
38480;DHT22;62333;51.980;5.934;2024-01-30T14:41:46;12.70;78.10
38480;DHT22;62333;51.980;5.934;2024-01-30T14:44:12;12.70;78.30
38480;DHT22;62333;51.980;5.934;2024-01-30T14:46:37;12.70;78.30
38480;DHT22;62333;51.980;5.934;2024-01-30T14:49:03;12.70;78.10
38480;DHT22;62333;51.980;5.934;2024-01-30T14:51:33;12.70;78.20
38480;DHT22;62333;51.980;5.934;2024-01-30T14:53:59;12.70;78.30
38480;DHT22;62333;51.980;5.934;2024-01-30T14:56:25;12.70;78.30
38480;DHT22;62333;51.980;5.934;2024-01-30T14:58:51;12.70;78.40
38480;DHT22;62333;51.980;5.934;2024-01-30T15:01:17;12.70;78.30
38480;DHT22;62333;51.980;5.934;2024-01-30T15:03:44;12.70;78.30
38480;DHT22;62333;51.980;5.934;2024-01-30T15:06:11;12.80;78.40
38480;DHT22;62333;51.980;5.934;2024-01-30T15:08:37;12.70;78.40
38480;DHT22;62333;51.980;5.934;2024-01-30T15:11:03;12.70;78.40
38480;DHT22;62333;51.980;5.934;2024-01-30T15:13:30;12.60;78.40
38480;DHT22;62333;51.980;5.934;2024-01-30T15:15:56;12.60;78.60
38480;DHT22;62333;51.980;5.934;2024-01-30T15:18:21;12.60;78.80
38480;DHT22;62333;51.980;5.934;2024-01-30T15:20:47;12.60;78.90
38480;DHT22;62333;51.980;5.934;2024-01-30T15:23:13;12.50;79.20
38480;DHT22;62333;51.980;5.934;2024-01-30T15:25:39;12.50;79.80